sensor_id;sensor_type;location;lat;lon;timestamp;P1;durP1;ratioP1;P2;durP2;ratioP2
75272;SDS011;63869;52.344;16.928;2024-01-16T06:42:38;8.88;;;3.30;;
75272;SDS011;63869;52.344;16.928;2024-01-16T06:45:04;8.05;;;3.90;;
75272;SDS011;63869;52.344;16.928;2024-01-16T06:47:30;10.35;;;4.53;;
75272;SDS011;63869;52.344;16.928;2024-01-16T06:49:55;15.02;;;5.75;;
75272;SDS011;63869;52.344;16.928;2024-01-16T06:52:21;21.88;;;6.80;;
75272;SDS011;63869;52.344;16.928;2024-01-16T06:54:50;14.30;;;7.03;;
75272;SDS011;63869;52.344;16.928;2024-01-16T06:59:51;15.02;;;5.88;;
75272;SDS011;63869;52.344;16.928;2024-01-16T07:10:01;8.52;;;4.22;;
75272;SDS011;63869;52.344;16.928;2024-01-16T07:25:04;19.83;;;7.70;;
75272;SDS011;63869;52.344;16.928;2024-01-16T07:27:32;18.27;;;7.65;;
75272;SDS011;63869;52.344;16.928;2024-01-16T08:03:02;12.05;;;4.30;;
75272;SDS011;63869;52.344;16.928;2024-01-16T08:05:33;8.45;;;3.97;;
75272;SDS011;63869;52.344;16.928;2024-01-16T08:07:58;9.48;;;4.25;;
75272;SDS011;63869;52.344;16.928;2024-01-16T08:12:57;13.75;;;4.68;;
75272;SDS011;63869;52.344;16.928;2024-01-16T08:22:58;6.07;;;2.80;;
75272;SDS011;63869;52.344;16.928;2024-01-16T08:32:58;5.65;;;3.15;;
75272;SDS011;63869;52.344;16.928;2024-01-16T08:48:04;10.68;;;4.43;;
75272;SDS011;63869;52.344;16.928;2024-01-16T08:58:12;6.63;;;2.95;;
75272;SDS011;63869;52.344;16.928;2024-01-16T09:03:09;17.77;;;6.18;;
75272;SDS011;63869;52.344;16.928;2024-01-16T09:13:11;7.25;;;2.58;;
75272;SDS011;63869;52.344;16.928;2024-01-16T09:15:37;8.40;;;3.60;;
75272;SDS011;63869;52.344;16.928;2024-01-16T09:18:03;5.72;;;2.67;;
75272;SDS011;63869;52.344;16.928;2024-01-16T09:20:28;4.38;;;2.05;;
75272;SDS011;63869;52.344;16.928;2024-01-16T09:22:53;8.18;;;2.38;;
75272;SDS011;63869;52.344;16.928;2024-01-16T09:25:19;8.25;;;3.35;;
75272;SDS011;63869;52.344;16.928;2024-01-16T09:27:45;10.23;;;4.03;;
75272;SDS011;63869;52.344;16.928;2024-01-16T09:30:10;6.47;;;2.80;;
75272;SDS011;63869;52.344;16.928;2024-01-16T09:32:37;9.18;;;2.75;;
75272;SDS011;63869;52.344;16.928;2024-01-16T09:35:03;7.57;;;3.50;;
75272;SDS011;63869;52.344;16.928;2024-01-16T09:37:32;11.38;;;3.30;;
75272;SDS011;63869;52.344;16.928;2024-01-16T09:39:57;13.73;;;4.60;;
75272;SDS011;63869;52.344;16.928;2024-01-16T09:42:23;6.97;;;3.50;;
75272;SDS011;63869;52.344;16.928;2024-01-16T09:44:49;6.43;;;3.38;;
75272;SDS011;63869;52.344;16.928;2024-01-16T09:47:15;13.00;;;3.90;;
75272;SDS011;63869;52.344;16.928;2024-01-16T09:49:41;3.33;;;2.20;;
75272;SDS011;63869;52.344;16.928;2024-01-16T09:52:07;4.72;;;1.98;;
75272;SDS011;63869;52.344;16.928;2024-01-16T09:54:32;8.48;;;3.35;;
75272;SDS011;63869;52.344;16.928;2024-01-16T09:56:58;7.53;;;3.08;;
75272;SDS011;63869;52.344;16.928;2024-01-16T09:59:24;8.25;;;2.63;;
75272;SDS011;63869;52.344;16.928;2024-01-16T10:01:49;7.80;;;3.30;;
75272;SDS011;63869;52.344;16.928;2024-01-16T10:04:16;8.30;;;3.95;;
75272;SDS011;63869;52.344;16.928;2024-01-16T10:06:42;6.10;;;3.20;;
75272;SDS011;63869;52.344;16.928;2024-01-16T10:09:10;4.72;;;2.30;;
75272;SDS011;63869;52.344;16.928;2024-01-16T10:11:37;3.75;;;2.35;;
75272;SDS011;63869;52.344;16.928;2024-01-16T10:14:03;7.15;;;2.75;;
75272;SDS011;63869;52.344;16.928;2024-01-16T10:21:37;4.25;;;2.28;;
75272;SDS011;63869;52.344;16.928;2024-01-16T10:24:12;5.68;;;2.80;;
75272;SDS011;63869;52.344;16.928;2024-01-16T10:26:38;4.70;;;2.00;;
75272;SDS011;63869;52.344;16.928;2024-01-16T10:29:03;11.00;;;4.20;;
75272;SDS011;63869;52.344;16.928;2024-01-16T10:31:31;9.38;;;4.22;;
75272;SDS011;63869;52.344;16.928;2024-01-16T10:33:57;4.95;;;3.22;;
75272;SDS011;63869;52.344;16.928;2024-01-16T10:36:23;3.63;;;1.85;;
75272;SDS011;63869;52.344;16.928;2024-01-16T10:38:48;5.78;;;2.58;;
75272;SDS011;63869;52.344;16.928;2024-01-16T10:41:17;5.22;;;2.63;;
75272;SDS011;63869;52.344;16.928;2024-01-16T10:43:42;5.03;;;2.17;;
75272;SDS011;63869;52.344;16.928;2024-01-16T10:46:18;5.63;;;2.22;;
75272;SDS011;63869;52.344;16.928;2024-01-16T10:48:59;5.97;;;2.53;;
75272;SDS011;63869;52.344;16.928;2024-01-16T10:51:26;6.40;;;2.40;;
75272;SDS011;63869;52.344;16.928;2024-01-16T10:53:51;5.30;;;2.38;;
75272;SDS011;63869;52.344;16.928;2024-01-16T10:56:21;7.18;;;3.45;;
75272;SDS011;63869;52.344;16.928;2024-01-16T10:58:46;9.30;;;2.13;;
75272;SDS011;63869;52.344;16.928;2024-01-16T11:01:15;10.07;;;3.22;;
75272;SDS011;63869;52.344;16.928;2024-01-16T11:03:44;9.95;;;3.08;;
75272;SDS011;63869;52.344;16.928;2024-01-16T11:06:11;9.77;;;4.45;;
75272;SDS011;63869;52.344;16.928;2024-01-16T11:08:37;7.47;;;2.75;;
75272;SDS011;63869;52.344;16.928;2024-01-16T11:11:02;4.78;;;2.30;;
75272;SDS011;63869;52.344;16.928;2024-01-16T11:13:31;6.57;;;2.10;;
75272;SDS011;63869;52.344;16.928;2024-01-16T11:15:57;2.42;;;1.45;;
75272;SDS011;63869;52.344;16.928;2024-01-16T11:18:23;10.55;;;2.95;;
75272;SDS011;63869;52.344;16.928;2024-01-16T11:20:49;6.93;;;2.45;;
75272;SDS011;63869;52.344;16.928;2024-01-16T11:23:15;3.85;;;1.95;;
75272;SDS011;63869;52.344;16.928;2024-01-16T11:25:41;4.32;;;2.08;;
75272;SDS011;63869;52.344;16.928;2024-01-16T11:28:10;4.35;;;2.47;;
75272;SDS011;63869;52.344;16.928;2024-01-16T11:30:36;6.05;;;2.55;;
75272;SDS011;63869;52.344;16.928;2024-01-16T11:33:02;5.13;;;2.20;;
75272;SDS011;63869;52.344;16.928;2024-01-16T11:38:14;3.53;;;1.73;;
75272;SDS011;63869;52.344;16.928;2024-01-16T11:40:41;7.13;;;2.20;;
75272;SDS011;63869;52.344;16.928;2024-01-16T11:45:50;4.10;;;2.22;;
75272;SDS011;63869;52.344;16.928;2024-01-16T11:48:16;4.28;;;2.60;;
75272;SDS011;63869;52.344;16.928;2024-01-16T11:50:42;5.55;;;2.13;;
75272;SDS011;63869;52.344;16.928;2024-01-16T11:53:08;2.90;;;2.05;;
75272;SDS011;63869;52.344;16.928;2024-01-16T11:55:49;4.45;;;2.08;;
75272;SDS011;63869;52.344;16.928;2024-01-16T12:00:50;4.65;;;2.35;;
75272;SDS011;63869;52.344;16.928;2024-01-16T12:03:21;4.28;;;2.13;;
75272;SDS011;63869;52.344;16.928;2024-01-16T12:05:55;4.07;;;2.45;;
75272;SDS011;63869;52.344;16.928;2024-01-16T12:08:21;4.03;;;2.50;;
75272;SDS011;63869;52.344;16.928;2024-01-16T12:10:47;4.50;;;2.83;;
75272;SDS011;63869;52.344;16.928;2024-01-16T12:13:15;5.50;;;2.67;;
75272;SDS011;63869;52.344;16.928;2024-01-16T12:15:40;2.20;;;1.52;;
75272;SDS011;63869;52.344;16.928;2024-01-16T12:18:06;4.30;;;2.20;;
75272;SDS011;63869;52.344;16.928;2024-01-16T12:20:33;5.05;;;2.30;;
75272;SDS011;63869;52.344;16.928;2024-01-16T12:25:27;4.07;;;2.30;;
75272;SDS011;63869;52.344;16.928;2024-01-16T12:28:00;4.53;;;2.35;;
75272;SDS011;63869;52.344;16.928;2024-01-16T12:30:35;10.18;;;2.90;;
75272;SDS011;63869;52.344;16.928;2024-01-16T12:33:10;4.82;;;2.47;;
75272;SDS011;63869;52.344;16.928;2024-01-16T12:35:36;4.53;;;2.22;;
75272;SDS011;63869;52.344;16.928;2024-01-16T12:38:02;6.25;;;2.67;;
75272;SDS011;63869;52.344;16.928;2024-01-16T12:40:28;5.85;;;2.30;;
75272;SDS011;63869;52.344;16.928;2024-01-16T12:42:53;7.85;;;2.15;;
75272;SDS011;63869;52.344;16.928;2024-01-16T12:45:19;7.15;;;2.50;;
75272;SDS011;63869;52.344;16.928;2024-01-16T12:47:49;6.43;;;2.40;;
75272;SDS011;63869;52.344;16.928;2024-01-16T12:50:21;5.00;;;2.47;;
75272;SDS011;63869;52.344;16.928;2024-01-16T12:52:47;5.63;;;2.70;;
75272;SDS011;63869;52.344;16.928;2024-01-16T12:55:13;6.15;;;2.95;;
75272;SDS011;63869;52.344;16.928;2024-01-16T12:57:38;6.78;;;3.15;;
75272;SDS011;63869;52.344;16.928;2024-01-16T13:00:20;4.15;;;2.38;;
75272;SDS011;63869;52.344;16.928;2024-01-16T13:02:48;8.68;;;3.13;;
75272;SDS011;63869;52.344;16.928;2024-01-16T13:05:15;9.88;;;3.25;;
75272;SDS011;63869;52.344;16.928;2024-01-16T13:07:42;5.45;;;2.75;;
75272;SDS011;63869;52.344;16.928;2024-01-16T13:10:11;9.27;;;4.10;;
75272;SDS011;63869;52.344;16.928;2024-01-16T13:12:37;11.15;;;4.88;;
75272;SDS011;63869;52.344;16.928;2024-01-16T13:15:03;8.90;;;4.00;;
75272;SDS011;63869;52.344;16.928;2024-01-16T13:17:30;15.73;;;4.68;;
75272;SDS011;63869;52.344;16.928;2024-01-16T13:19:56;11.98;;;5.15;;
75272;SDS011;63869;52.344;16.928;2024-01-16T13:22:21;13.95;;;4.63;;
75272;SDS011;63869;52.344;16.928;2024-01-16T13:24:47;9.00;;;4.22;;
75272;SDS011;63869;52.344;16.928;2024-01-16T13:27:12;14.85;;;4.95;;
75272;SDS011;63869;52.344;16.928;2024-01-16T13:29:38;14.32;;;6.53;;
75272;SDS011;63869;52.344;16.928;2024-01-16T13:32:05;13.82;;;6.15;;
75272;SDS011;63869;52.344;16.928;2024-01-16T13:34:30;17.75;;;5.70;;
75272;SDS011;63869;52.344;16.928;2024-01-16T13:36:56;10.68;;;4.80;;
75272;SDS011;63869;52.344;16.928;2024-01-16T13:39:25;12.23;;;4.55;;
75272;SDS011;63869;52.344;16.928;2024-01-16T13:41:50;9.77;;;4.95;;
75272;SDS011;63869;52.344;16.928;2024-01-16T13:44:15;13.50;;;5.85;;
75272;SDS011;63869;52.344;16.928;2024-01-16T13:46:40;12.32;;;4.90;;
75272;SDS011;63869;52.344;16.928;2024-01-16T13:49:06;14.40;;;5.65;;
75272;SDS011;63869;52.344;16.928;2024-01-16T13:51:32;17.85;;;6.45;;
75272;SDS011;63869;52.344;16.928;2024-01-16T13:53:57;17.83;;;7.68;;
75272;SDS011;63869;52.344;16.928;2024-01-16T13:56:23;23.35;;;9.32;;
75272;SDS011;63869;52.344;16.928;2024-01-16T13:58:48;20.05;;;7.85;;
75272;SDS011;63869;52.344;16.928;2024-01-16T14:01:13;16.00;;;7.40;;
75272;SDS011;63869;52.344;16.928;2024-01-16T14:03:38;18.58;;;8.63;;
75272;SDS011;63869;52.344;16.928;2024-01-16T14:06:05;20.42;;;8.75;;
75272;SDS011;63869;52.344;16.928;2024-01-16T14:08:32;18.13;;;7.88;;
75272;SDS011;63869;52.344;16.928;2024-01-16T14:10:57;24.42;;;10.93;;
75272;SDS011;63869;52.344;16.928;2024-01-16T14:13:25;19.70;;;8.73;;
75272;SDS011;63869;52.344;16.928;2024-01-16T14:15:50;21.13;;;8.00;;
75272;SDS011;63869;52.344;16.928;2024-01-16T14:18:16;23.27;;;9.18;;
75272;SDS011;63869;52.344;16.928;2024-01-16T14:20:41;19.77;;;6.18;;
75272;SDS011;63869;52.344;16.928;2024-01-16T14:23:06;13.02;;;6.18;;
75272;SDS011;63869;52.344;16.928;2024-01-16T14:25:32;13.57;;;5.50;;
75272;SDS011;63869;52.344;16.928;2024-01-16T14:27:58;13.13;;;6.47;;
75272;SDS011;63869;52.344;16.928;2024-01-16T14:30:24;18.30;;;8.20;;
75272;SDS011;63869;52.344;16.928;2024-01-16T14:32:50;21.20;;;7.95;;
75272;SDS011;63869;52.344;16.928;2024-01-16T14:35:16;23.38;;;10.18;;
75272;SDS011;63869;52.344;16.928;2024-01-16T14:37:42;23.35;;;8.25;;
75272;SDS011;63869;52.344;16.928;2024-01-16T14:40:08;18.52;;;7.95;;
75272;SDS011;63869;52.344;16.928;2024-01-16T14:42:40;23.83;;;8.90;;
75272;SDS011;63869;52.344;16.928;2024-01-16T14:45:06;21.98;;;8.48;;
75272;SDS011;63869;52.344;16.928;2024-01-16T14:47:32;20.33;;;7.85;;
75272;SDS011;63869;52.344;16.928;2024-01-16T14:49:57;25.33;;;10.82;;
75272;SDS011;63869;52.344;16.928;2024-01-16T14:52:23;26.58;;;9.80;;
75272;SDS011;63869;52.344;16.928;2024-01-16T14:54:48;18.50;;;8.18;;
75272;SDS011;63869;52.344;16.928;2024-01-16T14:57:15;18.67;;;7.47;;
75272;SDS011;63869;52.344;16.928;2024-01-16T14:59:40;16.60;;;8.50;;
75272;SDS011;63869;52.344;16.928;2024-01-16T15:02:05;22.77;;;9.13;;
75272;SDS011;63869;52.344;16.928;2024-01-16T15:04:38;17.25;;;8.50;;
75272;SDS011;63869;52.344;16.928;2024-01-16T15:07:03;31.00;;;11.10;;
75272;SDS011;63869;52.344;16.928;2024-01-16T15:09:29;23.98;;;8.23;;
75272;SDS011;63869;52.344;16.928;2024-01-16T15:11:54;20.80;;;8.82;;
75272;SDS011;63869;52.344;16.928;2024-01-16T15:14:20;25.30;;;11.90;;
75272;SDS011;63869;52.344;16.928;2024-01-16T15:16:45;35.75;;;13.93;;
75272;SDS011;63869;52.344;16.928;2024-01-16T15:19:10;25.45;;;10.13;;
75272;SDS011;63869;52.344;16.928;2024-01-16T15:21:36;28.40;;;10.55;;
75272;SDS011;63869;52.344;16.928;2024-01-16T15:24:04;33.33;;;13.40;;
75272;SDS011;63869;52.344;16.928;2024-01-16T15:26:29;62.10;;;18.75;;
75272;SDS011;63869;52.344;16.928;2024-01-16T15:28:56;27.38;;;11.45;;
75272;SDS011;63869;52.344;16.928;2024-01-16T15:31:21;28.15;;;11.38;;
75272;SDS011;63869;52.344;16.928;2024-01-16T15:33:47;43.25;;;15.35;;
75272;SDS011;63869;52.344;16.928;2024-01-16T15:36:12;57.45;;;16.90;;
75272;SDS011;63869;52.344;16.928;2024-01-16T15:38:37;151.65;;;35.63;;
75272;SDS011;63869;52.344;16.928;2024-01-16T15:41:03;60.47;;;20.92;;
75272;SDS011;63869;52.344;16.928;2024-01-16T15:43:28;41.20;;;16.95;;
75272;SDS011;63869;52.344;16.928;2024-01-16T15:45:53;20.42;;;10.25;;
75272;SDS011;63869;52.344;16.928;2024-01-16T15:48:19;20.13;;;9.73;;
75272;SDS011;63869;52.344;16.928;2024-01-16T15:50:44;21.50;;;8.82;;
75272;SDS011;63869;52.344;16.928;2024-01-16T15:53:09;19.15;;;8.88;;
75272;SDS011;63869;52.344;16.928;2024-01-16T15:55:36;17.95;;;6.72;;
75272;SDS011;63869;52.344;16.928;2024-01-16T15:58:02;21.73;;;8.50;;
75272;SDS011;63869;52.344;16.928;2024-01-16T16:00:28;19.15;;;7.72;;
75272;SDS011;63869;52.344;16.928;2024-01-16T16:02:53;25.77;;;8.32;;
75272;SDS011;63869;52.344;16.928;2024-01-16T16:05:18;27.10;;;9.77;;
75272;SDS011;63869;52.344;16.928;2024-01-16T16:07:44;23.55;;;8.00;;
75272;SDS011;63869;52.344;16.928;2024-01-16T16:10:09;21.83;;;9.00;;
75272;SDS011;63869;52.344;16.928;2024-01-16T16:12:35;29.92;;;9.18;;
75272;SDS011;63869;52.344;16.928;2024-01-16T16:15:00;27.27;;;8.48;;
75272;SDS011;63869;52.344;16.928;2024-01-16T16:17:25;51.13;;;13.07;;
75272;SDS011;63869;52.344;16.928;2024-01-16T16:19:51;66.35;;;19.08;;
75272;SDS011;63869;52.344;16.928;2024-01-16T16:22:17;54.85;;;15.32;;
75272;SDS011;63869;52.344;16.928;2024-01-16T16:24:43;32.40;;;9.57;;
75272;SDS011;63869;52.344;16.928;2024-01-16T16:27:23;30.40;;;8.88;;
75272;SDS011;63869;52.344;16.928;2024-01-16T16:29:49;23.00;;;7.60;;
75272;SDS011;63869;52.344;16.928;2024-01-16T16:32:14;20.67;;;7.57;;
75272;SDS011;63869;52.344;16.928;2024-01-16T16:34:40;23.63;;;8.30;;
75272;SDS011;63869;52.344;16.928;2024-01-16T16:37:05;16.98;;;6.72;;
75272;SDS011;63869;52.344;16.928;2024-01-16T16:39:30;22.45;;;7.68;;
75272;SDS011;63869;52.344;16.928;2024-01-16T16:41:56;21.23;;;6.68;;
75272;SDS011;63869;52.344;16.928;2024-01-16T16:44:21;27.05;;;9.40;;
75272;SDS011;63869;52.344;16.928;2024-01-16T16:46:46;29.52;;;10.60;;
75272;SDS011;63869;52.344;16.928;2024-01-16T16:49:12;28.08;;;10.13;;
75272;SDS011;63869;52.344;16.928;2024-01-16T16:51:37;29.33;;;9.73;;
75272;SDS011;63869;52.344;16.928;2024-01-16T16:54:07;16.83;;;7.15;;
75272;SDS011;63869;52.344;16.928;2024-01-16T16:56:32;18.20;;;7.20;;
75272;SDS011;63869;52.344;16.928;2024-01-16T16:58:58;13.65;;;5.78;;
75272;SDS011;63869;52.344;16.928;2024-01-16T17:01:23;13.32;;;5.53;;
75272;SDS011;63869;52.344;16.928;2024-01-16T17:03:48;16.88;;;6.60;;
75272;SDS011;63869;52.344;16.928;2024-01-16T17:06:17;35.47;;;13.73;;
75272;SDS011;63869;52.344;16.928;2024-01-16T17:08:42;44.90;;;15.85;;
75272;SDS011;63869;52.344;16.928;2024-01-16T17:11:10;24.73;;;8.93;;
75272;SDS011;63869;52.344;16.928;2024-01-16T17:13:36;21.73;;;8.90;;
75272;SDS011;63869;52.344;16.928;2024-01-16T17:16:01;25.02;;;11.43;;
75272;SDS011;63869;52.344;16.928;2024-01-16T17:18:33;25.05;;;9.35;;
75272;SDS011;63869;52.344;16.928;2024-01-16T17:21:03;30.80;;;11.70;;
75272;SDS011;63869;52.344;16.928;2024-01-16T17:23:28;20.95;;;10.00;;
75272;SDS011;63869;52.344;16.928;2024-01-16T17:25:57;17.10;;;7.28;;
75272;SDS011;63869;52.344;16.928;2024-01-16T17:28:23;21.70;;;8.23;;
75272;SDS011;63869;52.344;16.928;2024-01-16T17:30:49;23.65;;;7.63;;
75272;SDS011;63869;52.344;16.928;2024-01-16T17:33:15;16.65;;;7.07;;
75272;SDS011;63869;52.344;16.928;2024-01-16T17:35:40;24.58;;;7.93;;
75272;SDS011;63869;52.344;16.928;2024-01-16T17:38:06;19.30;;;7.72;;
75272;SDS011;63869;52.344;16.928;2024-01-16T17:40:31;19.15;;;8.00;;
75272;SDS011;63869;52.344;16.928;2024-01-16T17:42:56;17.95;;;7.53;;
75272;SDS011;63869;52.344;16.928;2024-01-16T17:45:22;20.10;;;8.18;;
75272;SDS011;63869;52.344;16.928;2024-01-16T17:47:53;20.80;;;7.80;;
75272;SDS011;63869;52.344;16.928;2024-01-16T17:52:47;41.40;;;12.65;;
75272;SDS011;63869;52.344;16.928;2024-01-16T17:57:43;15.27;;;6.88;;
75272;SDS011;63869;52.344;16.928;2024-01-16T18:00:16;20.10;;;7.93;;
75272;SDS011;63869;52.344;16.928;2024-01-16T18:02:41;16.30;;;6.65;;
75272;SDS011;63869;52.344;16.928;2024-01-16T18:05:07;27.50;;;13.77;;
75272;SDS011;63869;52.344;16.928;2024-01-16T18:07:36;17.83;;;8.07;;
75272;SDS011;63869;52.344;16.928;2024-01-16T18:10:01;19.42;;;8.48;;
75272;SDS011;63869;52.344;16.928;2024-01-16T18:12:27;19.38;;;8.10;;
75272;SDS011;63869;52.344;16.928;2024-01-16T18:14:53;16.75;;;7.60;;
75272;SDS011;63869;52.344;16.928;2024-01-16T18:17:19;16.73;;;6.88;;
75272;SDS011;63869;52.344;16.928;2024-01-16T18:19:44;20.92;;;8.30;;
75272;SDS011;63869;52.344;16.928;2024-01-16T18:22:12;22.30;;;8.75;;
75272;SDS011;63869;52.344;16.928;2024-01-16T18:24:37;30.58;;;12.82;;
75272;SDS011;63869;52.344;16.928;2024-01-16T18:27:02;22.55;;;9.68;;
75272;SDS011;63869;52.344;16.928;2024-01-16T18:29:30;30.00;;;12.05;;
75272;SDS011;63869;52.344;16.928;2024-01-16T18:31:55;21.80;;;10.30;;
75272;SDS011;63869;52.344;16.928;2024-01-16T18:34:26;25.52;;;11.45;;
75272;SDS011;63869;52.344;16.928;2024-01-16T18:36:51;30.67;;;13.10;;
75272;SDS011;63869;52.344;16.928;2024-01-16T18:39:22;27.80;;;11.23;;
75272;SDS011;63869;52.344;16.928;2024-01-16T18:41:50;25.60;;;12.25;;
75272;SDS011;63869;52.344;16.928;2024-01-16T18:44:16;31.33;;;13.95;;
75272;SDS011;63869;52.344;16.928;2024-01-16T18:46:41;28.48;;;11.15;;
75272;SDS011;63869;52.344;16.928;2024-01-16T18:49:07;29.27;;;13.23;;
75272;SDS011;63869;52.344;16.928;2024-01-16T18:51:33;34.45;;;14.80;;
75272;SDS011;63869;52.344;16.928;2024-01-16T18:53:58;32.50;;;13.15;;
75272;SDS011;63869;52.344;16.928;2024-01-16T18:56:24;58.35;;;18.80;;
75272;SDS011;63869;52.344;16.928;2024-01-16T18:58:49;45.13;;;16.25;;
75272;SDS011;63869;52.344;16.928;2024-01-16T19:01:15;51.88;;;19.00;;
75272;SDS011;63869;52.344;16.928;2024-01-16T19:03:41;37.95;;;14.10;;
75272;SDS011;63869;52.344;16.928;2024-01-16T19:06:06;38.85;;;15.95;;
75272;SDS011;63869;52.344;16.928;2024-01-16T19:08:43;44.65;;;15.02;;
75272;SDS011;63869;52.344;16.928;2024-01-16T19:11:11;44.08;;;16.88;;
75272;SDS011;63869;52.344;16.928;2024-01-16T19:13:39;42.97;;;15.18;;
75272;SDS011;63869;52.344;16.928;2024-01-16T19:16:05;48.33;;;18.17;;
75272;SDS011;63869;52.344;16.928;2024-01-16T19:18:34;44.67;;;18.40;;
75272;SDS011;63869;52.344;16.928;2024-01-16T19:21:01;45.85;;;17.55;;
75272;SDS011;63869;52.344;16.928;2024-01-16T19:23:36;38.42;;;17.15;;
75272;SDS011;63869;52.344;16.928;2024-01-16T19:26:02;39.95;;;16.13;;
75272;SDS011;63869;52.344;16.928;2024-01-16T19:28:30;38.75;;;15.40;;
75272;SDS011;63869;52.344;16.928;2024-01-16T19:31:00;35.33;;;14.00;;
75272;SDS011;63869;52.344;16.928;2024-01-16T19:33:26;29.02;;;13.13;;
75272;SDS011;63869;52.344;16.928;2024-01-16T19:35:54;35.75;;;15.65;;
75272;SDS011;63869;52.344;16.928;2024-01-16T19:38:23;37.83;;;15.85;;
75272;SDS011;63869;52.344;16.928;2024-01-16T19:40:48;27.30;;;11.93;;
75272;SDS011;63869;52.344;16.928;2024-01-16T19:43:15;33.30;;;13.50;;
75272;SDS011;63869;52.344;16.928;2024-01-16T19:45:40;36.58;;;11.93;;
75272;SDS011;63869;52.344;16.928;2024-01-16T19:48:07;43.63;;;18.60;;
75272;SDS011;63869;52.344;16.928;2024-01-16T19:50:38;35.72;;;13.30;;
75272;SDS011;63869;52.344;16.928;2024-01-16T19:53:03;32.30;;;10.73;;
75272;SDS011;63869;52.344;16.928;2024-01-16T19:55:31;33.60;;;12.90;;
75272;SDS011;63869;52.344;16.928;2024-01-16T19:57:57;27.20;;;11.80;;
75272;SDS011;63869;52.344;16.928;2024-01-16T20:00:22;36.33;;;13.57;;
75272;SDS011;63869;52.344;16.928;2024-01-16T20:02:48;28.05;;;10.80;;
75272;SDS011;63869;52.344;16.928;2024-01-16T20:05:13;28.15;;;11.15;;
75272;SDS011;63869;52.344;16.928;2024-01-16T20:07:40;26.92;;;11.35;;
75272;SDS011;63869;52.344;16.928;2024-01-16T20:10:06;27.05;;;10.77;;
75272;SDS011;63869;52.344;16.928;2024-01-16T20:12:32;24.80;;;10.20;;
75272;SDS011;63869;52.344;16.928;2024-01-16T20:14:57;21.83;;;9.77;;
75272;SDS011;63869;52.344;16.928;2024-01-16T20:17:22;27.02;;;10.77;;
75272;SDS011;63869;52.344;16.928;2024-01-16T20:19:48;27.55;;;10.38;;
75272;SDS011;63869;52.344;16.928;2024-01-16T20:22:13;22.65;;;10.50;;
75272;SDS011;63869;52.344;16.928;2024-01-16T20:24:38;22.80;;;10.20;;
75272;SDS011;63869;52.344;16.928;2024-01-16T20:27:04;22.55;;;10.30;;
75272;SDS011;63869;52.344;16.928;2024-01-16T20:29:29;21.63;;;9.50;;
75272;SDS011;63869;52.344;16.928;2024-01-16T20:31:55;23.33;;;9.63;;
75272;SDS011;63869;52.344;16.928;2024-01-16T20:34:23;21.70;;;7.97;;
75272;SDS011;63869;52.344;16.928;2024-01-16T20:36:48;18.23;;;8.18;;
75272;SDS011;63869;52.344;16.928;2024-01-16T20:39:26;23.15;;;9.80;;
75272;SDS011;63869;52.344;16.928;2024-01-16T20:41:51;19.73;;;8.85;;
75272;SDS011;63869;52.344;16.928;2024-01-16T20:44:19;19.10;;;9.15;;
75272;SDS011;63869;52.344;16.928;2024-01-16T20:46:49;21.42;;;10.07;;
75272;SDS011;63869;52.344;16.928;2024-01-16T20:49:14;20.00;;;9.57;;
75272;SDS011;63869;52.344;16.928;2024-01-16T20:51:45;23.67;;;10.50;;
75272;SDS011;63869;52.344;16.928;2024-01-16T20:54:11;26.70;;;9.32;;
75272;SDS011;63869;52.344;16.928;2024-01-16T20:56:39;24.52;;;7.50;;
75272;SDS011;63869;52.344;16.928;2024-01-16T20:59:05;19.60;;;8.45;;
75272;SDS011;63869;52.344;16.928;2024-01-16T21:01:31;26.60;;;8.13;;
75272;SDS011;63869;52.344;16.928;2024-01-16T21:03:56;14.68;;;6.53;;
75272;SDS011;63869;52.344;16.928;2024-01-16T21:06:21;17.70;;;7.20;;
75272;SDS011;63869;52.344;16.928;2024-01-16T21:08:46;23.08;;;7.68;;
75272;SDS011;63869;52.344;16.928;2024-01-16T21:11:12;19.70;;;7.15;;
75272;SDS011;63869;52.344;16.928;2024-01-16T21:13:37;16.42;;;6.18;;
75272;SDS011;63869;52.344;16.928;2024-01-16T21:16:04;16.98;;;7.53;;
75272;SDS011;63869;52.344;16.928;2024-01-16T21:18:31;24.50;;;8.23;;
75272;SDS011;63869;52.344;16.928;2024-01-16T21:20:56;16.58;;;6.55;;
75272;SDS011;63869;52.344;16.928;2024-01-16T21:23:22;23.45;;;7.32;;
75272;SDS011;63869;52.344;16.928;2024-01-16T21:25:47;17.20;;;6.80;;
75272;SDS011;63869;52.344;16.928;2024-01-16T21:28:12;18.42;;;6.93;;
75272;SDS011;63869;52.344;16.928;2024-01-16T21:30:38;18.48;;;7.30;;
75272;SDS011;63869;52.344;16.928;2024-01-16T21:33:03;19.35;;;7.03;;
75272;SDS011;63869;52.344;16.928;2024-01-16T21:35:29;15.57;;;6.30;;
75272;SDS011;63869;52.344;16.928;2024-01-16T21:37:54;18.63;;;6.32;;
75272;SDS011;63869;52.344;16.928;2024-01-16T21:40:19;14.32;;;6.95;;
75272;SDS011;63869;52.344;16.928;2024-01-16T21:42:45;16.65;;;6.15;;
75272;SDS011;63869;52.344;16.928;2024-01-16T21:45:10;16.80;;;7.45;;
75272;SDS011;63869;52.344;16.928;2024-01-16T21:47:36;27.35;;;9.23;;
75272;SDS011;63869;52.344;16.928;2024-01-16T21:50:01;20.20;;;7.22;;
75272;SDS011;63869;52.344;16.928;2024-01-16T21:52:26;25.10;;;7.30;;
75272;SDS011;63869;52.344;16.928;2024-01-16T21:54:51;16.35;;;6.70;;
75272;SDS011;63869;52.344;16.928;2024-01-16T21:57:17;17.10;;;7.28;;
75272;SDS011;63869;52.344;16.928;2024-01-16T21:59:42;19.83;;;7.70;;
75272;SDS011;63869;52.344;16.928;2024-01-16T22:02:09;17.48;;;7.00;;
75272;SDS011;63869;52.344;16.928;2024-01-16T22:04:38;20.88;;;7.18;;
75272;SDS011;63869;52.344;16.928;2024-01-16T22:07:03;18.92;;;6.63;;
75272;SDS011;63869;52.344;16.928;2024-01-16T22:09:29;20.67;;;7.57;;
75272;SDS011;63869;52.344;16.928;2024-01-16T22:11:54;17.75;;;6.90;;
75272;SDS011;63869;52.344;16.928;2024-01-16T22:14:20;18.17;;;7.65;;
75272;SDS011;63869;52.344;16.928;2024-01-16T22:16:46;21.83;;;7.47;;
75272;SDS011;63869;52.344;16.928;2024-01-16T22:19:12;18.80;;;8.07;;
75272;SDS011;63869;52.344;16.928;2024-01-16T22:21:37;21.95;;;8.20;;
75272;SDS011;63869;52.344;16.928;2024-01-16T22:24:03;21.27;;;8.18;;
75272;SDS011;63869;52.344;16.928;2024-01-16T22:26:28;18.23;;;8.23;;
75272;SDS011;63869;52.344;16.928;2024-01-16T22:28:54;19.83;;;7.30;;
75272;SDS011;63869;52.344;16.928;2024-01-16T22:31:19;15.27;;;6.65;;
75272;SDS011;63869;52.344;16.928;2024-01-16T22:33:44;18.27;;;7.65;;
75272;SDS011;63869;52.344;16.928;2024-01-16T22:36:10;17.63;;;7.68;;
75272;SDS011;63869;52.344;16.928;2024-01-16T22:38:36;16.55;;;7.13;;
75272;SDS011;63869;52.344;16.928;2024-01-16T22:41:01;17.23;;;7.55;;
75272;SDS011;63869;52.344;16.928;2024-01-16T22:43:29;22.80;;;9.45;;
75272;SDS011;63869;52.344;16.928;2024-01-16T22:45:54;25.85;;;8.80;;
75272;SDS011;63869;52.344;16.928;2024-01-16T22:48:20;16.52;;;7.70;;
75272;SDS011;63869;52.344;16.928;2024-01-16T22:50:45;18.60;;;7.82;;
75272;SDS011;63869;52.344;16.928;2024-01-16T22:53:15;19.15;;;7.50;;
75272;SDS011;63869;52.344;16.928;2024-01-16T22:55:44;19.10;;;7.25;;
75272;SDS011;63869;52.344;16.928;2024-01-16T22:58:11;19.23;;;7.75;;
75272;SDS011;63869;52.344;16.928;2024-01-16T23:00:36;18.92;;;7.93;;
75272;SDS011;63869;52.344;16.928;2024-01-16T23:03:06;17.25;;;6.75;;